KAPG/APG METAR and TAF weather

Enter ICAO airport designator
Station Type Date Time Source
KAPG METAR 2019/05/24 23:46 UTC NOAA

KAPG 242346Z 24005KT 7SM SCT120 BKN200 25/10 A3006


Station Type Date Time Source
KAPG Decoded METAR 2019/05/24 23:46 UTC NOAA

Phillips Army Air Field / Aberdeen, MD, United States (KAPG) 39-28N 076-10W
May 24, 2019 - 07:46 PM EDT / 2019.05.24 2346 UTC
Wind: from the WSW (240 degrees) at 6 MPH (5 KT):0
Visibility: 7 mile(s):0
Sky conditions: mostly cloudy
Temperature: 77 F (25 C)
Dew Point: 50 F (10 C)
Relative Humidity: 38%
Pressure (altimeter): 30.06 in. Hg (1017 hPa)
ob: KAPG 242346Z 24005KT 7SM SCT120 BKN200 25/10 A3006
cycle: 0

Station Type Date Time Source
KAPG TAF UTC NOAA

Error!

Example: see airport list